Time;durP1;ratioP1;P1;durP2;ratioP2;P2;SDS_P1;SDS_P2;PMS_P1;PMS_P2;Temp;Humidity;BMP_temperature;BMP_pressure;BME280_temperature;BME280_humidity;BME280_pressure;Samples;Min_cycle;Max_cycle;Signal;HPM_P1;HPM_P2
2024/01/23 00:01:35;;;;;;;4.97;1.05;;;;;;;7.31;93.11;100451.44;10418913;28;20206;-61
2024/01/23 00:06:36;;;;;;;5.57;1.20;;;;;;;7.30;93.23;100447.06;10436526;28;20102;-63
2024/01/23 00:11:38;;;;;;;6.10;1.85;;;;;;;7.31;93.51;100466.44;10437131;28;20052;-63
2024/01/23 00:16:39;;;;;;;6.20;1.30;;;;;;;7.29;93.04;100457.75;10438910;28;20132;-62
2024/01/23 00:21:41;;;;;;;7.40;1.83;;;;;;;7.33;92.93;100454.81;10433780;28;20093;-61
2024/01/23 00:26:42;;;;;;;7.63;1.75;;;;;;;7.39;93.99;100466.81;10423992;28;20746;-61
2024/01/23 00:31:44;;;;;;;7.30;1.38;;;;;;;7.34;94.10;100469.75;10445368;28;20063;-61
2024/01/23 00:36:45;;;;;;;5.20;1.67;;;;;;;7.38;94.66;100465.09;10447116;28;20056;-62
2024/01/23 00:41:46;;;;;;;7.82;1.63;;;;;;;7.41;95.51;100468.41;10444574;28;20052;-62
2024/01/23 00:46:48;;;;;;;7.95;1.70;;;;;;;7.43;94.71;100468.31;10443568;28;20060;-62
2024/01/23 00:51:50;;;;;;;7.15;1.60;;;;;;;7.41;95.36;100464.91;10441608;28;20117;-61
2024/01/23 00:56:51;;;;;;;5.22;1.45;;;;;;;7.51;94.84;100471.31;10405084;28;20132;-61
2024/01/23 01:01:52;;;;;;;7.90;1.63;;;;;;;7.50;94.49;100492.63;10441768;28;20614;-62
2024/01/23 01:06:54;;;;;;;7.15;1.85;;;;;;;7.46;93.59;100483.16;10418455;28;20123;-61
2024/01/23 01:11:57;;;;;;;7.93;1.60;;;;;;;7.43;93.79;100490.38;10403835;28;20090;-61
2024/01/23 01:16:58;;;;;;;9.13;2.10;;;;;;;7.38;93.47;100503.03;10442887;28;20122;-63
2024/01/23 01:22:02;;;;;;;6.50;1.73;;;;;;;7.43;93.61;100526.56;10418311;28;20049;-62
2024/01/23 01:27:06;;;;;;;6.75;2.20;;;;;;;7.39;93.11;100531.22;10428705;28;20048;-64
2024/01/23 01:32:08;;;;;;;6.13;1.45;;;;;;;7.37;92.91;100527.84;10426097;28;20098;-63
2024/01/23 01:37:09;;;;;;;8.75;2.53;;;;;;;7.37;91.91;100511.94;10441676;28;20107;-61
2024/01/23 01:42:11;;;;;;;6.28;1.67;;;;;;;7.30;91.75;100505.31;10434550;28;20084;-62
2024/01/23 01:47:13;;;;;;;6.18;2.13;;;;;;;7.37;91.58;100519.00;10424637;28;20118;-62
2024/01/23 01:52:15;;;;;;;8.07;1.90;;;;;;;7.41;90.59;100529.31;10430897;28;20200;-63
2024/01/23 01:57:20;;;;;;;8.23;2.40;;;;;;;7.34;89.68;100527.16;10441710;28;20634;-63
2024/01/23 02:02:22;;;;;;;4.25;1.25;;;;;;;7.33;89.25;100542.22;10440728;28;20602;-61
2024/01/23 02:07:24;;;;;;;6.00;1.67;;;;;;;7.38;87.76;100529.50;10423491;28;20056;-61
2024/01/23 02:12:26;;;;;;;7.78;1.98;;;;;;;7.33;86.96;100528.97;10435775;28;20525;-64
2024/01/23 02:17:27;;;;;;;8.23;1.63;;;;;;;7.38;87.21;100532.16;10441216;28;20178;-63
2024/01/23 02:22:29;;;;;;;9.85;1.75;;;;;;;7.42;86.96;100543.44;10440016;28;20057;-61
2024/01/23 02:27:30;;;;;;;5.90;1.20;;;;;;;7.35;87.02;100556.19;10439765;28;20048;-62
2024/01/23 02:32:32;;;;;;;4.78;1.63;;;;;;;7.35;86.92;100571.25;10438911;28;20721;-61
2024/01/23 02:37:34;;;;;;;9.73;1.40;;;;;;;7.15;85.77;100535.41;10438081;28;20044;-62
2024/01/23 02:42:35;;;;;;;6.63;1.83;;;;;;;7.31;85.84;100570.59;10414365;28;20057;-61
2024/01/23 02:47:37;;;;;;;5.95;1.85;;;;;;;7.28;85.66;100565.50;10437258;28;20059;-61
2024/01/23 02:52:42;;;;;;;6.47;1.50;;;;;;;7.27;85.17;100584.97;10438992;28;20084;-63
2024/01/23 02:57:44;;;;;;;7.22;2.42;;;;;;;7.34;84.66;100612.78;10438858;28;20141;-62
2024/01/23 03:02:46;;;;;;;6.35;1.77;;;;;;;7.35;84.82;100609.16;10429346;28;20542;-63
2024/01/23 03:07:50;;;;;;;6.38;1.83;;;;;;;7.26;84.61;100604.44;10446160;28;20706;-62
2024/01/23 03:12:52;;;;;;;4.50;2.03;;;;;;;7.23;84.42;100591.38;10424475;28;20477;-63
2024/01/23 03:17:53;;;;;;;5.28;1.27;;;;;;;7.22;83.60;100626.72;10428824;28;20141;-62
2024/01/23 03:22:56;;;;;;;5.38;1.60;;;;;;;7.20;83.24;100636.56;10440082;28;20102;-60
2024/01/23 03:27:58;;;;;;;5.47;1.42;;;;;;;7.29;83.93;100657.19;10414050;28;20051;-63
2024/01/23 03:33:00;;;;;;;4.57;1.30;;;;;;;7.36;84.34;100668.28;10416963;28;20052;-62
2024/01/23 03:38:04;;;;;;;7.65;1.35;;;;;;;7.32;84.17;100651.72;10428639;28;20045;-60
2024/01/23 03:43:06;;;;;;;6.63;2.05;;;;;;;7.29;84.30;100681.03;10438404;28;20109;-63
2024/01/23 03:48:07;;;;;;;6.13;1.52;;;;;;;7.24;84.27;100680.47;10441843;28;20679;-61
2024/01/23 03:53:09;;;;;;;5.97;1.10;;;;;;;7.28;84.65;100702.31;10431791;28;20290;-60
2024/01/23 03:58:10;;;;;;;6.72;1.30;;;;;;;7.20;84.71;100700.13;10454014;28;20053;-61
2024/01/23 04:03:12;;;;;;;6.43;1.50;;;;;;;7.26;84.68;100702.41;10442363;28;20057;-63
2024/01/23 04:08:13;;;;;;;8.43;2.15;;;;;;;7.10;83.61;100685.72;10447114;28;20060;-62
2024/01/23 04:13:16;;;;;;;4.65;1.02;;;;;;;7.27;83.48;100727.94;10446821;28;20205;-61
2024/01/23 04:18:17;;;;;;;4.88;1.10;;;;;;;7.31;83.51;100740.06;10430069;28;20052;-61
2024/01/23 04:23:19;;;;;;;5.82;1.80;;;;;;;7.29;82.93;100749.88;10427565;28;20060;-62
2024/01/23 04:28:20;;;;;;;3.85;0.80;;;;;;;7.17;82.16;100718.84;10450075;28;20049;-62
2024/01/23 04:33:22;;;;;;;3.25;0.93;;;;;;;7.34;82.32;100770.81;10449883;28;20129;-61
2024/01/23 04:38:24;;;;;;;3.95;0.90;;;;;;;7.35;82.21;100788.41;10446354;28;20048;-63
2024/01/23 04:43:26;;;;;;;4.10;0.50;;;;;;;7.25;82.46;100798.66;10448587;28;20516;-60
2024/01/23 04:48:27;;;;;;;4.00;0.70;;;;;;;7.29;82.75;100802.00;10450284;28;20128;-62
2024/01/23 04:53:32;;;;;;;2.97;0.98;;;;;;;7.28;82.95;100805.59;10447831;28;20052;-62
2024/01/23 04:58:34;;;;;;;3.67;0.75;;;;;;;7.25;83.60;100825.16;10450105;28;20457;-64
2024/01/23 05:03:36;;;;;;;3.05;0.95;;;;;;;7.22;83.38;100831.50;10452864;28;20056;-62
2024/01/23 05:08:37;;;;;;;3.97;1.20;;;;;;;7.15;83.63;100843.38;10419434;28;20140;-62
2024/01/23 05:13:41;;;;;;;4.25;0.73;;;;;;;7.15;84.01;100853.13;10435770;28;20063;-62
2024/01/23 05:18:43;;;;;;;3.73;1.27;;;;;;;7.10;84.57;100853.38;10418793;28;20053;-62
2024/01/23 05:23:44;;;;;;;6.10;1.30;;;;;;;7.10;84.59;100863.09;10446256;28;20044;-60
2024/01/23 05:28:46;;;;;;;9.50;1.48;;;;;;;7.13;85.02;100868.22;10440643;28;20064;-60
2024/01/23 05:33:47;;;;;;;7.03;1.58;;;;;;;7.10;85.29;100881.63;10447509;28;20257;-62
2024/01/23 05:38:51;;;;;;;7.00;1.38;;;;;;;7.01;85.97;100870.63;10446343;28;20114;-61
2024/01/23 05:43:52;;;;;;;4.45;1.92;;;;;;;7.07;86.45;100904.69;10443916;28;20141;-62
2024/01/23 05:48:54;;;;;;;7.20;1.25;;;;;;;7.04;87.50;100907.53;10441816;28;20057;-62
2024/01/23 05:53:55;;;;;;;4.95;1.48;;;;;;;7.08;87.76;100913.47;10444786;28;20131;-63
2024/01/23 05:58:57;;;;;;;5.05;1.33;;;;;;;7.01;87.77;100910.34;10443799;28;20057;-62
2024/01/23 06:03:59;;;;;;;8.18;1.52;;;;;;;7.02;88.08;100924.41;10442320;28;21429;-63
2024/01/23 06:09:00;;;;;;;8.18;2.20;;;;;;;6.97;87.51;100943.19;10411821;28;20061;-62
2024/01/23 06:14:03;;;;;;;8.07;2.22;;;;;;;6.93;88.16;100952.25;10421806;28;20132;-62
2024/01/23 06:19:11;;;;;;;7.28;1.83;;;;;;;6.92;88.30;100966.44;10442194;28;20049;-64
2024/01/23 06:24:12;;;;;;;4.63;2.15;;;;;;;6.96;88.42;100990.94;10431050;28;20924;-62
2024/01/23 06:29:15;;;;;;;5.93;2.08;;;;;;;6.88;88.29;100994.84;10430229;28;20059;-63
2024/01/23 06:34:17;;;;;;;10.20;2.25;;;;;;;6.93;88.03;101010.47;10419564;28;20080;-60
2024/01/23 06:39:19;;;;;;;6.43;1.83;;;;;;;6.89;88.25;101016.84;10449779;28;20060;-62
2024/01/23 06:44:20;;;;;;;5.93;1.60;;;;;;;6.90;87.80;101023.88;10441060;28;20053;-61
2024/01/23 06:49:22;;;;;;;8.50;2.40;;;;;;;6.90;87.84;101043.28;10399700;28;20160;-61
2024/01/23 06:54:23;;;;;;;6.03;2.45;;;;;;;6.89;87.20;101056.56;10456306;28;20049;-61
2024/01/23 06:59:25;;;;;;;10.13;2.33;;;;;;;6.93;87.27;101058.09;10454026;28;20098;-62
2024/01/23 07:04:26;;;;;;;6.03;2.13;;;;;;;6.93;87.29;101057.25;10445285;28;20135;-61
2024/01/23 07:09:28;;;;;;;6.82;1.63;;;;;;;6.92;87.30;101058.19;10446203;28;20578;-61
2024/01/23 07:14:30;;;;;;;8.73;2.03;;;;;;;6.87;86.50;101058.44;10437845;28;20049;-61
2024/01/23 07:19:31;;;;;;;6.35;1.70;;;;;;;6.93;86.84;101076.63;10424332;28;20180;-63
2024/01/23 07:24:34;;;;;;;9.32;2.20;;;;;;;6.90;87.10;101090.03;10447105;28;20063;-63
2024/01/23 07:29:38;;;;;;;4.78;1.30;;;;;;;6.93;86.63;101110.19;10407482;28;20194;-61
2024/01/23 07:34:40;;;;;;;7.78;2.60;;;;;;;6.92;86.92;101109.34;10411495;28;20570;-63
2024/01/23 07:39:43;;;;;;;9.27;2.15;;;;;;;6.85;87.11;101131.78;10425199;28;20056;-61
2024/01/23 07:44:46;;;;;;;7.95;1.90;;;;;;;6.95;87.32;101143.59;10401194;28;20454;-66
2024/01/23 07:49:49;;;;;;;7.70;2.42;;;;;;;7.00;86.99;101152.16;10441140;28;20063;-63
2024/01/23 07:54:52;;;;;;;7.40;1.90;;;;;;;6.97;86.43;101160.25;10437482;28;20072;-61
2024/01/23 07:59:55;;;;;;;11.48;3.42;;;;;;;7.05;86.22;101158.06;10403619;28;20087;-60
2024/01/23 08:04:56;;;;;;;9.48;3.03;;;;;;;7.05;84.99;101152.75;10421287;28;20056;-62
2024/01/23 08:09:59;;;;;;;8.02;2.63;;;;;;;7.19;85.39;101169.72;10420300;28;20053;-61
2024/01/23 08:15:04;;;;;;;6.78;2.50;;;;;;;7.31;83.71;101173.53;10431322;28;20106;-61
2024/01/23 08:20:08;;;;;;;7.70;2.38;;;;;;;7.36;83.03;101177.66;10445275;28;20789;-62
2024/01/23 08:25:09;;;;;;;13.05;3.42;;;;;;;7.41;81.72;101195.97;10429175;28;20105;-62
2024/01/23 08:30:11;;;;;;;11.43;2.10;;;;;;;7.38;81.75;101191.69;10437431;28;20090;-62
2024/01/23 08:35:15;;;;;;;10.68;3.78;;;;;;;7.37;81.62;101184.69;10431012;28;20166;-63
2024/01/23 08:40:17;;;;;;;9.63;2.83;;;;;;;7.46;81.25;101203.69;10434352;28;20083;-62
2024/01/23 08:45:18;;;;;;;8.77;2.72;;;;;;;7.48;80.27;101210.63;10440060;28;20162;-63
2024/01/23 08:50:20;;;;;;;9.95;2.90;;;;;;;7.57;79.77;101218.06;10429547;28;20056;-64
2024/01/23 08:55:22;;;;;;;10.07;2.65;;;;;;;7.64;79.23;101231.88;10444110;28;20224;-63
2024/01/23 09:00:24;;;;;;;8.55;2.17;;;;;;;7.74;78.70;101241.03;10415198;28;22390;-62
2024/01/23 09:05:25;;;;;;;5.32;1.92;;;;;;;7.82;78.47;101238.00;10443499;28;20693;-63
2024/01/23 09:10:35;;;;;;;8.63;2.88;;;;;;;7.79;77.62;101254.91;10443157;28;20044;-62
2024/01/23 09:15:36;;;;;;;12.05;3.80;;;;;;;8.04;77.50;101263.34;10436717;28;26046;-63
2024/01/23 09:20:38;;;;;;;7.72;2.45;;;;;;;8.18;76.82;101275.84;10403289;28;20585;-61
2024/01/23 09:25:39;;;;;;;9.45;2.85;;;;;;;8.28;76.22;101279.72;10420185;28;20048;-61
2024/01/23 09:30:44;;;;;;;10.30;3.08;;;;;;;8.44;76.06;101277.97;10427146;28;20063;-62
2024/01/23 09:35:48;;;;;;;5.80;2.20;;;;;;;8.63;74.13;101293.75;10445839;28;20139;-63
2024/01/23 09:40:51;;;;;;;15.25;9.43;;;;;;;8.81;73.82;101297.16;10445543;28;20521;-62
2024/01/23 09:45:55;;;;;;;8.68;2.40;;;;;;;8.73;72.79;101251.59;10424116;28;20052;-62
2024/01/23 09:50:59;;;;;;;10.65;2.17;;;;;;;9.23;73.48;101304.53;10403969;28;20052;-62
2024/01/23 09:56:00;;;;;;;6.55;1.70;;;;;;;9.38;71.38;101309.84;10442331;28;20412;-62
2024/01/23 10:01:02;;;;;;;6.68;1.90;;;;;;;9.46;70.92;101319.16;10425268;28;20128;-63
2024/01/23 10:06:04;;;;;;;7.88;2.55;;;;;;;9.45;70.57;101302.34;10440587;28;20064;-61
2024/01/23 10:11:06;;;;;;;9.88;2.67;;;;;;;9.36;69.90;101313.53;10443392;28;20048;-65
2024/01/23 10:16:07;;;;;;;8.68;2.00;;;;;;;9.27;69.39;101303.44;10409789;28;20060;-62
2024/01/23 10:21:08;;;;;;;11.05;3.08;;;;;;;9.30;70.16;101308.56;10429644;28;20052;-65
2024/01/23 10:26:11;;;;;;;13.80;2.97;;;;;;;9.38;69.87;101312.50;10429396;28;20044;-65
2024/01/23 10:31:13;;;;;;;12.57;2.92;;;;;;;9.37;70.87;101315.25;10444769;28;20060;-63
2024/01/23 10:36:15;;;;;;;11.90;3.03;;;;;;;9.48;71.44;101311.94;10422547;28;20054;-63
2024/01/23 10:41:18;;;;;;;9.10;2.67;;;;;;;9.61;70.79;101325.34;10435496;28;20048;-63
2024/01/23 10:46:20;;;;;;;8.70;2.40;;;;;;;9.76;70.59;101328.91;10429641;28;20102;-63
2024/01/23 10:51:30;;;;;;;7.72;2.50;;;;;;;9.89;70.49;101333.41;10425959;28;20055;-62
2024/01/23 10:56:43;;;;;;;13.27;3.05;;;;;;;10.18;69.45;101341.41;10429344;28;20202;-63
2024/01/23 11:01:45;;;;;;;10.68;2.55;;;;;;;11.24;66.18;101333.81;10408676;28;20095;-64
2024/01/23 11:07:02;;;;;;;10.57;3.15;;;;;;;11.59;63.67;101311.97;10441329;28;20056;-64
2024/01/23 11:12:28;;;;;;;14.07;3.20;;;;;;;11.89;63.70;101326.81;10443286;28;20056;-63
2024/01/23 11:17:35;;;;;;;10.18;2.85;;;;;;;11.89;62.86;101341.97;10434999;28;20067;-62
2024/01/23 11:22:37;;;;;;;9.27;2.05;;;;;;;11.95;62.53;101353.09;10421447;28;20087;-63
2024/01/23 11:27:47;;;;;;;6.95;2.55;;;;;;;11.63;62.30;101340.13;10408477;28;20056;-64
2024/01/23 11:32:48;;;;;;;8.93;2.33;;;;;;;11.66;62.49;101339.91;10425591;28;20545;-62
2024/01/23 11:37:51;;;;;;;8.13;2.22;;;;;;;11.67;61.89;101346.94;10433769;28;20139;-63
2024/01/23 11:42:54;;;;;;;9.30;2.78;;;;;;;11.45;62.09;101346.69;10436031;28;20436;-66
2024/01/23 11:47:58;;;;;;;9.00;2.83;;;;;;;11.29;61.76;101357.53;10428481;28;20175;-63
2024/01/23 11:53:02;;;;;;;10.13;2.60;;;;;;;11.00;62.54;101340.75;10428487;28;20114;-64
2024/01/23 11:58:12;;;;;;;9.82;2.15;;;;;;;10.95;62.05;101352.56;10416307;28;20057;-64
2024/01/23 12:03:20;;;;;;;10.80;2.45;;;;;;;11.41;60.61;101331.84;10411986;28;20146;-65
2024/01/23 12:08:23;;;;;;;8.52;2.13;;;;;;;11.64;59.14;101336.47;10408288;28;20048;-66
2024/01/23 12:13:25;;;;;;;9.10;2.75;;;;;;;11.34;59.01;101306.56;10415113;28;20057;-63
2024/01/23 12:18:27;;;;;;;10.00;2.45;;;;;;;11.11;59.72;101327.63;10398812;28;20765;-64
2024/01/23 12:23:29;;;;;;;10.68;2.58;;;;;;;10.74;59.64;101319.34;10417743;28;20045;-63
2024/01/23 12:28:35;;;;;;;9.98;2.58;;;;;;;10.67;60.55;101291.38;10438038;28;20533;-63
2024/01/23 12:33:41;;;;;;;8.77;2.08;;;;;;;10.49;59.39;101299.59;10444289;28;20488;-66
2024/01/23 12:38:43;;;;;;;6.85;2.20;;;;;;;10.06;60.00;101289.81;10428507;28;20122;-65
2024/01/23 12:43:45;;;;;;;9.13;1.85;;;;;;;10.23;60.63;101288.75;10443939;28;20058;-63
2024/01/23 12:48:48;;;;;;;9.88;2.50;;;;;;;10.25;59.27;101297.50;10424895;28;20052;-62
2024/01/23 12:53:50;;;;;;;12.90;3.53;;;;;;;10.28;59.97;101275.16;10439417;28;20049;-63
2024/01/23 12:58:52;;;;;;;11.30;2.40;;;;;;;10.13;59.66;101281.44;10441107;28;20549;-65
2024/01/23 13:03:54;;;;;;;8.50;2.15;;;;;;;10.05;60.13;101287.25;10415054;28;20053;-63
2024/01/23 13:08:56;;;;;;;12.02;2.63;;;;;;;9.89;60.11;101282.00;10414467;28;20053;-64
2024/01/23 13:13:58;;;;;;;11.10;2.17;;;;;;;9.86;60.74;101292.81;10386056;28;20076;-63
2024/01/23 13:18:59;;;;;;;10.15;2.58;;;;;;;9.90;61.56;101302.34;10438655;28;20538;-63
2024/01/23 13:24:01;;;;;;;11.07;3.10;;;;;;;9.83;61.68;101296.56;10439646;28;20056;-61
2024/01/23 13:29:08;;;;;;;8.55;2.92;;;;;;;9.75;62.49;101282.84;10438441;28;20041;-64
2024/01/23 13:34:15;;;;;;;11.57;2.47;;;;;;;9.73;63.62;101274.13;10395415;28;20052;-63
2024/01/23 13:39:18;;;;;;;18.83;11.50;;;;;;;9.63;64.51;101276.47;10424042;28;20060;-63
2024/01/23 13:44:21;;;;;;;10.30;3.53;;;;;;;9.62;64.98;101296.00;10424702;28;20072;-64
2024/01/23 13:49:22;;;;;;;9.00;2.30;;;;;;;9.43;66.74;101288.31;10419496;28;20056;-64
2024/01/23 13:54:26;;;;;;;8.57;3.10;;;;;;;9.57;66.96;101313.22;10439747;28;21088;-63
2024/01/23 13:59:27;;;;;;;8.65;2.80;;;;;;;9.38;68.35;101307.19;10435633;28;20056;-65
2024/01/23 14:04:29;;;;;;;10.70;3.08;;;;;;;9.44;68.87;101305.94;10437635;28;20585;-65
2024/01/23 14:09:30;;;;;;;8.27;3.35;;;;;;;9.39;69.07;101294.72;10437759;28;20123;-62
2024/01/23 14:14:32;;;;;;;9.63;2.95;;;;;;;9.30;70.40;101282.84;10438964;28;20057;-62
2024/01/23 14:19:33;;;;;;;12.68;3.10;;;;;;;9.17;71.01;101250.84;10438390;28;20049;-63
2024/01/23 14:24:37;;;;;;;10.88;2.72;;;;;;;9.03;71.53;101242.81;10388613;28;20135;-62
2024/01/23 14:29:38;;;;;;;9.38;3.08;;;;;;;9.14;72.62;101287.34;10427211;28;20064;-62
2024/01/23 14:34:41;;;;;;;8.35;2.88;;;;;;;9.12;73.48;101282.13;10436089;28;20048;-63
2024/01/23 14:39:42;;;;;;;15.18;3.65;;;;;;;9.04;73.82;101273.75;10436305;28;20755;-63
2024/01/23 14:44:45;;;;;;;10.70;2.70;;;;;;;9.08;74.40;101285.88;10412599;28;20057;-63
2024/01/23 14:49:47;;;;;;;10.98;3.17;;;;;;;9.02;75.23;101296.88;10397821;28;20064;-63
2024/01/23 14:54:51;;;;;;;10.63;3.72;;;;;;;8.95;75.71;101279.59;10437502;28;20071;-63
2024/01/23 14:59:53;;;;;;;6.65;3.13;;;;;;;9.15;75.65;101320.94;10433889;28;20060;-64
2024/01/23 15:04:54;;;;;;;10.30;3.25;;;;;;;9.05;76.36;101296.69;10437681;28;20056;-62
2024/01/23 15:09:57;;;;;;;8.98;3.03;;;;;;;8.77;76.71;101250.50;10440187;28;20135;-64
2024/01/23 15:14:58;;;;;;;13.35;4.30;;;;;;;8.91;78.01;101286.03;10434203;28;20048;-63
2024/01/23 15:20:00;;;;;;;10.13;3.65;;;;;;;8.90;78.43;101286.94;10409055;28;20191;-63
2024/01/23 15:25:02;;;;;;;8.82;2.72;;;;;;;8.90;78.40;101273.66;10402250;28;20052;-62
2024/01/23 15:30:05;;;;;;;12.32;2.92;;;;;;;8.81;79.33;101277.69;10438689;28;20218;-62
2024/01/23 15:35:07;;;;;;;9.70;3.03;;;;;;;8.76;79.19;101272.66;10438048;28;20048;-63
2024/01/23 15:40:09;;;;;;;11.13;2.80;;;;;;;8.81;79.39;101267.09;10404243;28;20614;-61
2024/01/23 15:45:11;;;;;;;13.23;4.43;;;;;;;8.79;80.02;101283.09;10430491;28;20135;-61
2024/01/23 15:50:13;;;;;;;14.63;4.05;;;;;;;8.75;80.77;101280.72;10409422;28;20862;-63
2024/01/23 15:55:18;;;;;;;12.15;3.33;;;;;;;8.72;80.96;101265.84;10414972;28;20064;-63
2024/01/23 16:00:20;;;;;;;12.90;3.63;;;;;;;8.70;80.99;101262.38;10421640;28;20129;-65
2024/01/23 16:05:22;;;;;;;17.45;4.75;;;;;;;8.74;81.03;101250.66;10417109;28;20041;-64
2024/01/23 16:10:25;;;;;;;18.10;5.68;;;;;;;8.73;81.32;101261.38;10414147;28;20757;-63
2024/01/23 16:15:27;;;;;;;11.85;3.42;;;;;;;8.79;81.23;101267.16;10432693;28;20205;-63
2024/01/23 16:20:29;;;;;;;10.95;3.90;;;;;;;8.79;81.48;101259.22;10427238;28;20052;-63
2024/01/23 16:25:30;;;;;;;13.88;3.95;;;;;;;8.83;81.55;101257.25;10408694;28;20128;-64
2024/01/23 16:30:35;;;;;;;12.02;3.83;;;;;;;8.83;81.90;101257.25;10394026;28;20065;-61
2024/01/23 16:35:40;;;;;;;13.80;4.53;;;;;;;8.77;82.64;101239.88;10430592;28;20064;-64
2024/01/23 16:40:44;;;;;;;8.45;3.30;;;;;;;8.70;82.65;101230.53;10417494;28;20040;-64
2024/01/23 16:45:48;;;;;;;8.57;4.00;;;;;;;8.73;83.39;101237.47;10430772;28;20362;-63
2024/01/23 16:50:52;;;;;;;12.80;5.47;;;;;;;8.75;84.61;101233.81;10440769;28;20532;-66
2024/01/23 16:55:55;;;;;;;12.25;4.97;;;;;;;8.84;84.07;101229.75;10433560;28;20056;-64
2024/01/23 17:00:59;;;;;;;16.48;6.97;;;;;;;8.78;84.47;101236.28;10424694;28;20140;-63
2024/01/23 17:06:01;;;;;;;11.13;4.57;;;;;;;8.75;85.66;101238.22;10437530;28;20128;-62
2024/01/23 17:11:05;;;;;;;10.98;3.97;;;;;;;8.62;86.89;101232.78;10448417;28;20079;-63
2024/01/23 17:16:07;;;;;;;10.30;4.75;;;;;;;8.63;87.90;101240.66;10440203;28;20604;-62
2024/01/23 17:21:08;;;;;;;16.38;4.65;;;;;;;8.59;88.69;101225.84;10427399;28;20133;-62
2024/01/23 17:26:11;;;;;;;14.52;5.75;;;;;;;8.54;89.68;101221.72;10417083;28;20060;-62
2024/01/23 17:31:13;;;;;;;11.82;3.67;;;;;;;8.52;90.54;101207.72;10439427;28;20143;-64
2024/01/23 17:36:14;;;;;;;9.80;4.00;;;;;;;8.53;91.94;101201.44;10410443;28;20705;-63
2024/01/23 17:41:15;;;;;;;13.30;4.25;;;;;;;8.56;92.49;101198.63;10393828;28;20262;-64
2024/01/23 17:46:17;;;;;;;18.75;8.32;;;;;;;8.41;93.43;101166.69;10387758;28;20130;-63
2024/01/23 17:51:20;;;;;;;12.85;6.53;;;;;;;8.41;95.69;101171.13;10436757;28;20536;-62
2024/01/23 17:56:22;;;;;;;11.50;4.13;;;;;;;8.16;96.91;101123.91;10441272;28;20119;-62
2024/01/23 18:01:24;;;;;;;17.35;3.83;;;;;;;8.07;98.73;101123.47;10422275;28;20131;-63
2024/01/23 18:06:26;;;;;;;15.15;4.18;;;;;;;8.31;99.57;101170.78;10420685;28;20566;-63
2024/01/23 18:11:27;;;;;;;12.45;3.45;;;;;;;8.17;100.00;101160.09;10417001;28;20405;-62
2024/01/23 18:16:30;;;;;;;12.93;4.07;;;;;;;8.11;100.00;101154.19;10402751;28;20060;-62
2024/01/23 18:21:32;;;;;;;13.10;4.15;;;;;;;8.16;100.00;101140.69;10407210;28;20064;-63
2024/01/23 18:26:36;;;;;;;13.48;3.33;;;;;;;8.10;100.00;101147.16;10421148;28;20099;-63
2024/01/23 18:31:38;;;;;;;9.77;3.75;;;;;;;8.09;100.00;101113.66;10437953;28;20057;-62
2024/01/23 18:36:39;;;;;;;14.55;3.75;;;;;;;8.09;100.00;101104.84;10401667;28;20050;-63
2024/01/23 18:41:42;;;;;;;13.60;3.88;;;;;;;8.04;100.00;101099.78;10415588;28;20056;-63
2024/01/23 18:46:44;;;;;;;13.55;3.90;;;;;;;8.06;100.00;101084.66;10410029;28;20060;-63
2024/01/23 18:51:46;;;;;;;14.30;4.85;;;;;;;8.07;100.00;101067.78;10414362;28;20044;-63
2024/01/23 18:56:47;;;;;;;14.85;7.45;;;;;;;8.07;100.00;101075.75;10398280;28;20056;-62
2024/01/23 19:01:49;;;;;;;11.90;5.07;;;;;;;8.07;100.00;101093.47;10412635;28;20052;-63
2024/01/23 19:06:51;;;;;;;16.85;5.00;;;;;;;7.98;100.00;101065.66;10434476;28;20126;-63
2024/01/23 19:11:53;;;;;;;14.98;4.60;;;;;;;7.94;100.00;101059.69;10426548;28;20052;-63
2024/01/23 19:16:55;;;;;;;14.43;4.82;;;;;;;7.84;100.00;101036.47;10425068;28;20052;-65
2024/01/23 19:21:56;;;;;;;18.30;4.72;;;;;;;7.68;100.00;101008.16;10435534;28;20045;-63
2024/01/23 19:26:59;;;;;;;12.13;3.45;;;;;;;7.59;100.00;101016.63;10434981;28;20052;-63
2024/01/23 19:32:02;;;;;;;14.82;4.88;;;;;;;7.65;100.00;101029.53;10401888;28;20052;-63
2024/01/23 19:37:04;;;;;;;13.85;4.57;;;;;;;7.68;100.00;101004.66;10413643;28;20052;-63
2024/01/23 19:42:05;;;;;;;10.00;4.35;;;;;;;7.71;100.00;101007.97;10403634;28;20052;-64
2024/01/23 19:47:07;;;;;;;8.80;3.22;;;;;;;7.67;100.00;101006.47;10427343;28;20056;-62
2024/01/23 19:52:09;;;;;;;11.05;4.13;;;;;;;7.65;100.00;100988.94;10409343;28;20052;-64
2024/01/23 19:57:12;;;;;;;13.50;3.40;;;;;;;7.69;100.00;100972.75;10400987;28;20064;-63
2024/01/23 20:02:13;;;;;;;11.73;3.55;;;;;;;7.64;100.00;100958.06;10400605;28;20107;-63
2024/01/23 20:07:14;;;;;;;11.88;4.15;;;;;;;7.60;100.00;100960.03;10436309;28;20704;-64
2024/01/23 20:12:16;;;;;;;9.68;4.35;;;;;;;7.57;100.00;100971.66;10431512;28;20206;-64
2024/01/23 20:17:17;;;;;;;14.13;4.45;;;;;;;7.62;100.00;100955.50;10412238;28;20554;-65
2024/01/23 20:22:19;;;;;;;29.00;15.55;;;;;;;7.49;100.00;100933.28;10389673;28;21583;-63
2024/01/23 20:27:20;;;;;;;14.88;5.13;;;;;;;7.42;100.00;100912.44;10414224;28;20146;-64
2024/01/23 20:32:22;;;;;;;13.73;5.40;;;;;;;7.57;100.00;100920.47;10393188;28;20056;-63
2024/01/23 20:37:23;;;;;;;14.68;3.75;;;;;;;7.52;100.00;100911.91;10444094;28;20072;-63
2024/01/23 20:42:25;;;;;;;25.88;15.88;;;;;;;7.55;100.00;100895.84;10443761;28;20094;-64
2024/01/23 20:47:27;;;;;;;34.15;28.73;;;;;;;7.44;100.00;100905.25;10417450;28;20048;-64
2024/01/23 20:52:30;;;;;;;11.00;4.13;;;;;;;7.58;100.00;100906.25;10439746;28;20056;-63
2024/01/23 20:57:33;;;;;;;8.45;3.75;;;;;;;7.61;100.00;100898.13;10421761;28;20084;-64
2024/01/23 21:02:34;;;;;;;15.63;5.50;;;;;;;7.56;100.00;100881.66;10426019;28;20606;-64
2024/01/23 21:07:36;;;;;;;13.77;7.50;;;;;;;7.66;100.00;100877.53;10408345;28;20079;-62
2024/01/23 21:12:38;;;;;;;11.93;3.83;;;;;;;7.61;100.00;100853.97;10417054;28;20067;-63
2024/01/23 21:17:39;;;;;;;13.55;5.10;;;;;;;7.71;100.00;100886.06;10419057;28;20049;-63
2024/01/23 21:22:42;;;;;;;10.02;3.22;;;;;;;7.70;100.00;100879.09;10438765;28;20049;-63
2024/01/23 21:27:44;;;;;;;10.35;5.38;;;;;;;7.79;100.00;100881.19;10435621;28;20044;-64
2024/01/23 21:32:45;;;;;;;7.93;3.33;;;;;;;7.71;100.00;100854.25;10439036;28;20422;-64
2024/01/23 21:37:47;;;;;;;10.07;3.55;;;;;;;7.89;100.00;100832.91;10420267;28;20056;-67
2024/01/23 21:42:48;;;;;;;12.80;3.63;;;;;;;7.93;100.00;100826.50;10409671;28;20355;-63
2024/01/23 21:47:50;;;;;;;15.02;5.05;;;;;;;7.95;100.00;100835.19;10409361;28;20588;-62
2024/01/23 21:52:52;;;;;;;8.52;3.50;;;;;;;7.86;100.00;100814.56;10433611;28;20045;-63
2024/01/23 21:57:53;;;;;;;16.65;7.13;;;;;;;7.82;100.00;100807.72;10412461;28;20057;-62
2024/01/23 22:02:55;;;;;;;8.63;2.88;;;;;;;7.91;100.00;100817.75;10436822;28;20072;-62
2024/01/23 22:07:57;;;;;;;8.80;3.53;;;;;;;7.94;100.00;100820.22;10421374;28;20121;-63
2024/01/23 22:12:59;;;;;;;9.77;2.78;;;;;;;7.79;100.00;100793.72;10440053;28;20052;-63
2024/01/23 22:18:00;;;;;;;9.65;3.35;;;;;;;7.89;100.00;100803.75;10433206;28;20056;-62
2024/01/23 22:23:02;;;;;;;11.93;3.58;;;;;;;7.90;100.00;100789.56;10428106;28;20048;-62
2024/01/23 22:28:04;;;;;;;8.45;2.85;;;;;;;7.71;100.00;100742.13;10436335;28;20139;-62
2024/01/23 22:33:05;;;;;;;14.63;4.38;;;;;;;7.96;100.00;100768.84;10432873;28;20610;-63
2024/01/23 22:38:07;;;;;;;11.65;2.78;;;;;;;8.01;100.00;100776.50;10405179;28;20083;-63
2024/01/23 22:43:08;;;;;;;9.18;2.97;;;;;;;8.05;100.00;100774.53;10409850;28;20600;-62
2024/01/23 22:48:10;;;;;;;10.63;2.85;;;;;;;8.09;100.00;100763.63;10429664;28;20107;-62
2024/01/23 22:53:11;;;;;;;8.38;2.60;;;;;;;8.19;100.00;100752.44;10428905;28;20048;-63
2024/01/23 22:58:13;;;;;;;9.98;3.25;;;;;;;8.23;100.00;100740.72;10433267;28;20129;-63
2024/01/23 23:03:15;;;;;;;9.93;2.88;;;;;;;8.23;100.00;100743.38;10419203;28;20158;-62
2024/01/23 23:08:16;;;;;;;8.70;3.08;;;;;;;8.30;100.00;100739.34;10432315;28;20051;-62
2024/01/23 23:13:19;;;;;;;7.72;2.45;;;;;;;8.24;100.00;100713.22;10393553;28;20052;-62